Time;durP1;ratioP1;P1;durP2;ratioP2;P2;SDS_P1;SDS_P2;PMS_P1;PMS_P2;Temp;Humidity;BMP_temperature;BMP_pressure;BME280_temperature;BME280_humidity;BME280_pressure;Samples;Min_cycle;Max_cycle;Signal;HPM_P1;HPM_P2
2023/06/22 00:00:48;;;;;;;13.25;6.50;;;;;;;21.05;100.00;100558.09;5586132;31;34788;-72
2023/06/22 00:03:56;;;;;;;15.85;7.20;;;;;;;20.93;100.00;100557.25;5586071;31;34778;-71
2023/06/22 00:07:03;;;;;;;11.80;6.82;;;;;;;20.86;100.00;100559.25;5586059;31;33259;-72
2023/06/22 00:10:12;;;;;;;19.80;7.15;;;;;;;20.76;100.00;100566.00;5580443;31;33668;-72
2023/06/22 00:13:18;;;;;;;15.40;7.20;;;;;;;20.68;100.00;100569.00;5585834;31;34317;-69
2023/06/22 00:16:24;;;;;;;15.75;7.12;;;;;;;20.63;100.00;100573.44;5585847;31;34377;-69
2023/06/22 00:19:32;;;;;;;13.18;7.00;;;;;;;20.65;100.00;100576.75;5585828;31;34080;-70
2023/06/22 00:22:42;;;;;;;13.60;6.93;;;;;;;20.68;100.00;100577.09;5585545;31;34800;-69
2023/06/22 00:25:50;;;;;;;19.02;7.78;;;;;;;20.76;100.00;100582.19;5585686;31;34130;-69
2023/06/22 00:28:58;;;;;;;15.82;7.30;;;;;;;20.78;100.00;100577.38;5585645;31;34718;-70
2023/06/22 00:32:07;;;;;;;14.30;7.35;;;;;;;20.71;100.00;100578.53;5585543;31;33886;-70
2023/06/22 00:35:14;;;;;;;17.10;7.53;;;;;;;20.73;100.00;100573.72;5585575;31;33924;-69
2023/06/22 00:38:22;;;;;;;12.90;7.35;;;;;;;20.65;100.00;100572.19;5585492;31;34792;-69
2023/06/22 00:41:32;;;;;;;15.15;7.70;;;;;;;20.74;100.00;100556.50;5585343;31;34161;-69
2023/06/22 00:44:41;;;;;;;15.68;7.28;;;;;;;20.59;100.00;100559.59;5585133;31;34208;-70
2023/06/22 00:47:52;;;;;;;13.62;7.60;;;;;;;20.50;100.00;100569.06;5585236;31;34224;-70
2023/06/22 00:50:59;;;;;;;15.10;7.72;;;;;;;20.46;100.00;100569.75;5585544;31;34094;-69
2023/06/22 00:54:08;;;;;;;14.63;7.57;;;;;;;20.44;100.00;100580.75;5585142;31;34080;-69
2023/06/22 00:57:16;;;;;;;17.75;8.20;;;;;;;20.42;100.00;100560.47;5585224;31;33808;-70
2023/06/22 01:00:26;;;;;;;15.77;7.53;;;;;;;20.52;100.00;100558.06;5585023;31;34592;-70
2023/06/22 01:03:35;;;;;;;18.27;8.93;;;;;;;20.44;100.00;100553.81;5586480;31;34161;-69
2023/06/22 01:06:54;;;;;;;12.93;7.90;;;;;;;20.39;100.00;100559.88;5588035;31;33596;-69
2023/06/22 01:10:12;;;;;;;14.52;7.57;;;;;;;20.35;100.00;100568.66;5587888;31;34110;-69
2023/06/22 01:13:43;;;;;;;18.48;7.70;;;;;;;20.40;100.00;100560.69;5587955;31;34665;-70
2023/06/22 01:16:53;;;;;;;16.08;8.02;;;;;;;20.49;100.00;100563.91;5587856;31;34775;-69
2023/06/22 01:20:04;;;;;;;18.15;8.43;;;;;;;20.54;100.00;100566.72;5587866;31;34916;-70
2023/06/22 01:23:23;;;;;;;18.35;7.57;;;;;;;20.60;100.00;100571.22;5587779;31;34055;-70
2023/06/22 01:26:55;;;;;;;15.10;7.75;;;;;;;20.58;100.00;100566.03;5587026;31;34172;-69
2023/06/22 01:30:02;;;;;;;15.07;7.57;;;;;;;20.62;100.00;100566.44;5587922;31;34031;-69
2023/06/22 01:33:12;;;;;;;16.33;7.32;;;;;;;20.66;100.00;100571.12;5587697;31;34082;-69
2023/06/22 01:36:23;;;;;;;15.90;7.78;;;;;;;20.62;100.00;100579.91;5586995;31;34601;-69
2023/06/22 01:39:33;;;;;;;16.12;7.97;;;;;;;20.63;100.00;100578.84;5586964;31;34540;-69
2023/06/22 01:42:43;;;;;;;18.85;7.62;;;;;;;20.62;100.00;100566.44;5587618;31;34643;-69
2023/06/22 01:45:52;;;;;;;17.58;7.57;;;;;;;20.65;100.00;100564.09;5587625;31;34103;-70
2023/06/22 01:49:00;;;;;;;17.40;7.43;;;;;;;20.63;100.00;100557.28;5587619;31;34140;-69
2023/06/22 01:52:09;;;;;;;16.03;7.73;;;;;;;20.63;100.00;100570.75;5587558;31;34283;-69
2023/06/22 01:55:17;;;;;;;15.30;8.30;;;;;;;20.57;100.00;100575.22;5587691;31;34240;-69
2023/06/22 01:58:27;;;;;;;17.95;8.15;;;;;;;20.55;100.00;100576.47;5586653;31;34802;-68
2023/06/22 02:01:50;;;;;;;14.07;7.75;;;;;;;20.55;100.00;100568.38;5587911;31;33867;-69
2023/06/22 02:05:09;;;;;;;15.30;7.70;;;;;;;20.53;100.00;100574.00;5587407;31;34587;-71
2023/06/22 02:08:22;;;;;;;17.80;8.48;;;;;;;20.53;100.00;100574.00;5587421;31;34578;-71
2023/06/22 02:11:32;;;;;;;22.17;8.60;;;;;;;20.51;100.00;100576.09;5587502;31;33862;-71
2023/06/22 02:14:40;;;;;;;16.58;7.85;;;;;;;20.53;100.00;100584.78;5587260;31;34814;-71
2023/06/22 02:17:48;;;;;;;14.30;8.02;;;;;;;20.59;100.00;100585.75;5587384;31;34160;-71
2023/06/22 02:20:55;;;;;;;15.77;7.95;;;;;;;20.60;100.00;100585.53;5587366;31;34663;-71
2023/06/22 02:24:01;;;;;;;15.40;7.95;;;;;;;20.56;100.00;100592.41;5587475;31;34221;-68
2023/06/22 02:27:10;;;;;;;16.47;7.90;;;;;;;20.51;100.00;100597.66;5587298;31;34648;-71
2023/06/22 02:30:17;;;;;;;18.08;8.57;;;;;;;20.45;100.00;100595.06;5587308;31;34167;-69
2023/06/22 02:33:25;;;;;;;16.80;8.63;;;;;;;20.49;100.00;100588.97;5587253;31;34139;-71
2023/06/22 02:36:33;;;;;;;17.75;8.25;;;;;;;20.52;100.00;100585.03;5587200;31;34045;-71
2023/06/22 02:39:42;;;;;;;16.73;8.65;;;;;;;20.58;100.00;100590.31;5587140;31;34156;-69
2023/06/22 02:42:49;;;;;;;18.33;8.52;;;;;;;20.53;100.00;100602.81;5587127;31;33939;-70
2023/06/22 02:45:56;;;;;;;17.92;7.28;;;;;;;20.47;100.00;100606.44;5587110;31;34795;-70
2023/06/22 02:49:03;;;;;;;13.62;6.60;;;;;;;20.30;100.00;100606.19;5587191;31;34166;-71
2023/06/22 02:52:11;;;;;;;13.50;6.55;;;;;;;20.27;100.00;100612.03;5586999;31;34116;-71
2023/06/22 02:55:19;;;;;;;16.45;6.22;;;;;;;20.22;100.00;100604.62;5587085;31;34594;-70
2023/06/22 02:58:27;;;;;;;17.52;6.70;;;;;;;20.15;100.00;100611.97;5587043;31;33864;-68
2023/06/22 03:01:42;;;;;;;21.42;5.90;;;;;;;20.05;100.00;100608.12;5586906;31;34168;-68
2023/06/22 03:04:53;;;;;;;15.25;6.20;;;;;;;19.96;100.00;100616.50;5586872;31;34042;-70
2023/06/22 03:07:59;;;;;;;16.55;6.53;;;;;;;19.93;100.00;100606.19;5586930;31;34733;-68
2023/06/22 03:11:06;;;;;;;17.60;6.12;;;;;;;19.99;100.00;100606.34;5586914;31;34396;-71
2023/06/22 03:14:13;;;;;;;14.57;6.18;;;;;;;19.86;100.00;100604.59;5586791;31;34100;-68
2023/06/22 03:17:21;;;;;;;20.75;6.22;;;;;;;19.88;100.00;100606.03;5586773;31;34045;-70
2023/06/22 03:20:33;;;;;;;19.37;6.30;;;;;;;19.89;100.00;100609.56;5586764;31;34114;-68
2023/06/22 03:23:41;;;;;;;17.10;6.62;;;;;;;19.92;100.00;100601.84;5586941;31;34131;-69
2023/06/22 03:26:48;;;;;;;13.73;6.07;;;;;;;19.94;100.00;100604.34;5585099;31;34125;-69
2023/06/22 03:29:56;;;;;;;14.43;6.05;;;;;;;20.00;100.00;100613.37;5586625;31;35064;-69
2023/06/22 03:33:05;;;;;;;19.90;6.90;;;;;;;20.01;100.00;100610.47;5586461;31;34195;-69
2023/06/22 03:36:11;;;;;;;17.50;6.32;;;;;;;20.07;100.00;100603.34;5586516;31;34715;-69
2023/06/22 03:39:21;;;;;;;13.25;6.15;;;;;;;20.02;100.00;100598.66;5585666;31;33976;-69
2023/06/22 03:42:28;;;;;;;15.07;6.15;;;;;;;20.04;100.00;100596.56;5586454;31;33928;-69
2023/06/22 03:45:35;;;;;;;11.40;6.07;;;;;;;20.08;100.00;100600.44;5586260;31;34040;-69
2023/06/22 03:48:43;;;;;;;15.32;6.37;;;;;;;20.09;100.00;100602.06;5586333;31;34746;-69
2023/06/22 03:51:50;;;;;;;19.75;7.00;;;;;;;20.11;100.00;100608.06;5586096;31;35105;-66
2023/06/22 03:54:57;;;;;;;16.58;7.03;;;;;;;20.12;100.00;100614.28;5586288;31;33792;-70
2023/06/22 03:58:05;;;;;;;19.62;6.72;;;;;;;20.23;100.00;100616.25;5586168;31;34792;-68
2023/06/22 04:01:11;;;;;;;13.70;6.53;;;;;;;20.29;100.00;100615.31;5586151;31;34841;-68
2023/06/22 04:04:18;;;;;;;19.77;6.80;;;;;;;20.38;100.00;100616.72;5585980;31;34843;-68
2023/06/22 04:07:24;;;;;;;12.27;6.03;;;;;;;20.54;100.00;100615.25;5585159;31;34019;-67
2023/06/22 04:10:31;;;;;;;13.40;6.55;;;;;;;20.61;100.00;100624.91;5586034;31;33833;-68
2023/06/22 04:13:40;;;;;;;16.33;6.90;;;;;;;20.70;100.00;100630.81;5585943;31;34739;-66
2023/06/22 04:16:47;;;;;;;16.15;7.05;;;;;;;20.64;100.00;100624.44;5585814;31;34019;-66
2023/06/22 04:19:55;;;;;;;22.42;6.62;;;;;;;20.76;100.00;100625.34;5584849;31;34010;-66
2023/06/22 04:23:01;;;;;;;17.80;6.57;;;;;;;20.80;100.00;100620.31;5585703;31;34043;-67
2023/06/22 04:26:09;;;;;;;15.10;6.45;;;;;;;20.90;100.00;100628.66;5585592;31;34170;-67
2023/06/22 04:29:17;;;;;;;15.18;6.37;;;;;;;21.02;100.00;100624.13;5585564;31;34151;-68
2023/06/22 04:32:23;;;;;;;14.82;6.20;;;;;;;21.08;100.00;100636.69;5585204;31;34070;-68
2023/06/22 04:35:30;;;;;;;14.18;5.90;;;;;;;20.94;100.00;100634.41;5585232;31;33871;-68
2023/06/22 04:38:37;;;;;;;12.25;5.55;;;;;;;21.17;100.00;100645.31;5586739;31;34797;-68
2023/06/22 04:41:43;;;;;;;14.40;5.95;;;;;;;21.26;100.00;100638.53;5587974;31;34172;-68
2023/06/22 04:44:49;;;;;;;16.50;5.85;;;;;;;21.15;100.00;100636.63;5587403;31;34961;-68
2023/06/22 04:47:56;;;;;;;13.40;5.95;;;;;;;21.15;100.00;100644.72;5588101;31;34573;-68
2023/06/22 04:51:04;;;;;;;17.20;6.43;;;;;;;21.21;100.00;100641.09;5587839;31;34688;-68
2023/06/22 04:54:09;;;;;;;18.17;6.57;;;;;;;21.18;100.00;100639.69;5575971;31;34156;-68
2023/06/22 04:57:14;;;;;;;15.15;6.20;;;;;;;21.29;100.00;100642.66;5568075;32;34553;-68
2023/06/22 05:00:22;;;;;;;12.07;6.10;;;;;;;21.57;100.00;100642.81;5568140;32;34706;-69
2023/06/22 05:03:28;;;;;;;18.15;6.25;;;;;;;21.65;100.00;100643.28;5568157;32;34267;-68
2023/06/22 05:06:37;;;;;;;20.15;7.30;;;;;;;21.80;100.00;100648.22;5568032;32;34538;-68
2023/06/22 05:09:45;;;;;;;13.82;5.70;;;;;;;22.03;100.00;100642.81;5568110;31;34114;-68
2023/06/22 05:12:52;;;;;;;15.48;5.82;;;;;;;22.19;100.00;100646.69;5568264;32;34050;-68
2023/06/22 05:16:01;;;;;;;15.73;6.03;;;;;;;22.49;100.00;100644.63;5568217;32;35203;-68
2023/06/22 05:19:09;;;;;;;16.15;5.47;;;;;;;22.62;100.00;100650.81;5568318;32;33946;-68
2023/06/22 05:22:16;;;;;;;17.52;6.03;;;;;;;22.85;100.00;100654.28;5567908;32;34665;-69
2023/06/22 05:25:23;;;;;;;13.77;6.05;;;;;;;22.90;100.00;100659.81;5573545;31;34624;-69
2023/06/22 05:28:28;;;;;;;17.30;5.55;;;;;;;22.86;100.00;100661.34;5580695;31;34167;-68
2023/06/22 05:31:35;;;;;;;16.40;5.80;;;;;;;22.99;100.00;100665.66;5570948;31;34762;-69
2023/06/22 05:34:40;;;;;;;13.88;5.43;;;;;;;23.17;100.00;100670.03;5587351;31;34040;-70
2023/06/22 05:37:44;;;;;;;13.10;5.57;;;;;;;23.36;100.00;100674.19;5586932;31;34631;-70
2023/06/22 05:40:49;;;;;;;12.48;5.50;;;;;;;23.38;100.00;100675.56;5580626;31;34061;-69
2023/06/22 05:43:52;;;;;;;12.73;5.35;;;;;;;23.44;100.00;100684.59;5579327;31;34181;-68
2023/06/22 05:46:57;;;;;;;13.60;5.05;;;;;;;23.38;100.00;100689.09;5584747;31;33818;-69
2023/06/22 05:50:00;;;;;;;16.23;5.35;;;;;;;23.39;100.00;100692.62;5586389;31;34449;-70
2023/06/22 05:53:04;;;;;;;15.25;5.43;;;;;;;23.39;100.00;100690.75;5586356;31;34706;-70
2023/06/22 05:56:08;;;;;;;14.30;5.37;;;;;;;23.51;100.00;100693.44;5575787;31;34735;-69
2023/06/22 05:59:12;;;;;;;16.00;5.85;;;;;;;23.65;100.00;100694.75;5576740;31;34485;-70
2023/06/22 06:02:19;;;;;;;20.48;4.78;;;;;;;23.64;100.00;100695.81;5573604;31;35161;-70
2023/06/22 06:05:25;;;;;;;14.73;5.43;;;;;;;23.77;100.00;100700.06;5583916;31;34808;-70
2023/06/22 06:08:30;;;;;;;15.23;5.40;;;;;;;23.94;100.00;100691.94;5577806;31;33845;-70
2023/06/22 06:11:35;;;;;;;14.10;5.50;;;;;;;24.09;100.00;100689.47;5586262;31;34686;-70
2023/06/22 06:14:43;;;;;;;15.82;5.60;;;;;;;24.14;100.00;100690.34;5586344;31;34664;-69
2023/06/22 06:17:52;;;;;;;18.58;5.25;;;;;;;24.13;100.00;100693.31;5570496;31;33080;-70
2023/06/22 06:20:57;;;;;;;13.15;5.07;;;;;;;24.35;100.00;100688.75;5585642;31;34112;-70
2023/06/22 06:24:02;;;;;;;17.00;4.80;;;;;;;24.55;100.00;100696.34;5586921;31;33889;-70
2023/06/22 06:27:05;;;;;;;17.17;5.15;;;;;;;24.64;100.00;100692.94;5586744;31;34437;-70
2023/06/22 06:30:11;;;;;;;12.35;4.50;;;;;;;24.88;100.00;100687.28;5586132;31;34138;-70
2023/06/22 06:33:14;;;;;;;15.23;4.50;;;;;;;24.85;100.00;100685.88;5586580;31;34189;-70
2023/06/22 06:36:18;;;;;;;12.05;4.78;;;;;;;24.96;100.00;100684.94;5587042;31;34549;-71
2023/06/22 06:39:22;;;;;;;15.77;4.53;;;;;;;25.18;100.00;100684.87;5586988;31;33825;-71
2023/06/22 06:42:27;;;;;;;16.98;4.60;;;;;;;25.32;100.00;100696.97;5586886;31;34662;-71
2023/06/22 06:45:32;;;;;;;16.17;4.35;;;;;;;25.56;100.00;100683.09;5582037;31;34089;-71
2023/06/22 06:48:37;;;;;;;11.55;3.85;;;;;;;25.82;100.00;100684.94;5586916;31;34216;-69
2023/06/22 06:51:40;;;;;;;16.37;4.32;;;;;;;26.07;100.00;100684.28;5578188;31;34080;-69
2023/06/22 06:54:43;;;;;;;14.48;4.05;;;;;;;26.13;90.27;100688.69;5586784;31;34626;-72
2023/06/22 06:57:48;;;;;;;19.42;4.80;;;;;;;26.13;91.12;100688.69;5586528;31;34674;-70
2023/06/22 07:00:51;;;;;;;13.48;3.78;;;;;;;26.16;88.52;100686.25;5567201;31;34593;-70
2023/06/22 07:03:55;;;;;;;11.75;4.10;;;;;;;26.35;96.09;100681.22;5575371;31;34723;-69
2023/06/22 07:07:01;;;;;;;11.88;3.85;;;;;;;26.24;100.00;100679.50;5574733;31;34588;-70
2023/06/22 07:10:08;;;;;;;15.57;3.90;;;;;;;26.27;92.64;100677.09;5574589;31;34558;-71
2023/06/22 07:13:11;;;;;;;14.38;4.18;;;;;;;26.71;83.41;100674.03;5575251;31;35453;-70
2023/06/22 07:16:14;;;;;;;15.18;4.15;;;;;;;27.02;80.82;100680.41;5575490;31;34757;-70
2023/06/22 07:19:25;;;;;;;12.93;4.07;;;;;;;27.28;79.39;100675.81;5575856;31;34049;-68
2023/06/22 07:22:30;;;;;;;12.52;3.30;;;;;;;27.51;80.21;100675.31;5580376;31;34321;-70
2023/06/22 07:25:35;;;;;;;14.70;3.97;;;;;;;27.44;79.17;100686.47;5583616;31;34125;-69
2023/06/22 07:28:40;;;;;;;11.35;3.75;;;;;;;27.41;74.26;100672.56;5585896;31;34432;-70
2023/06/22 07:31:46;;;;;;;10.52;3.87;;;;;;;27.91;77.68;100678.03;5584828;31;34526;-71
2023/06/22 07:34:51;;;;;;;12.10;3.35;;;;;;;27.79;70.23;100674.75;5583437;31;32700;-71
2023/06/22 07:37:54;;;;;;;14.35;3.55;;;;;;;27.49;68.78;100675.59;5586133;31;34804;-70
2023/06/22 07:40:57;;;;;;;12.00;3.50;;;;;;;28.15;70.33;100682.91;5578385;31;34800;-70
2023/06/22 07:44:03;;;;;;;14.87;3.72;;;;;;;28.93;63.65;100679.34;5574030;31;34037;-71
2023/06/22 07:47:07;;;;;;;18.62;3.80;;;;;;;29.96;60.46;100674.78;5579177;31;35252;-71
2023/06/22 07:50:12;;;;;;;12.57;3.47;;;;;;;30.56;59.64;100676.03;5565328;32;34628;-71
2023/06/22 07:53:17;;;;;;;13.38;3.30;;;;;;;30.75;56.51;100674.13;5567799;31;35030;-71
2023/06/22 07:56:21;;;;;;;15.57;4.10;;;;;;;30.59;54.26;100675.47;5575936;31;34608;-70
2023/06/22 07:59:25;;;;;;;16.62;3.80;;;;;;;31.42;50.07;100666.56;5573335;31;34232;-71
2023/06/22 08:02:30;;;;;;;14.55;3.62;;;;;;;30.78;52.32;100665.34;5566218;32;34170;-71
2023/06/22 08:05:35;;;;;;;14.27;3.50;;;;;;;31.88;52.97;100666.63;5564993;32;34724;-71
2023/06/22 08:08:38;;;;;;;14.57;3.22;;;;;;;33.21;48.81;100665.59;5574872;31;33887;-71
2023/06/22 08:11:41;;;;;;;8.32;3.03;;;;;;;33.36;46.61;100668.75;5576302;31;34835;-71
2023/06/22 08:14:45;;;;;;;11.25;3.05;;;;;;;33.48;45.04;100660.75;5574360;31;36043;-72
2023/06/22 08:17:52;;;;;;;12.75;3.37;;;;;;;31.19;49.37;100651.06;5567814;32;34845;-71
2023/06/22 08:20:55;;;;;;;10.60;3.33;;;;;;;31.18;51.91;100647.50;5574960;31;34269;-72
2023/06/22 08:23:59;;;;;;;10.98;3.55;;;;;;;32.49;47.37;100652.53;5577826;31;34159;-71
2023/06/22 08:27:03;;;;;;;13.05;3.50;;;;;;;32.47;47.83;100649.31;5587484;31;34135;-71
2023/06/22 08:30:07;;;;;;;11.85;3.28;;;;;;;34.15;45.28;100652.38;5587710;31;34863;-72
2023/06/22 08:33:12;;;;;;;12.98;3.50;;;;;;;33.95;44.00;100651.00;5585027;31;34691;-72
2023/06/22 08:36:32;;;;;;;13.00;3.30;;;;;;;34.61;42.43;100649.16;5584731;31;34152;-72
2023/06/22 08:39:36;;;;;;;8.30;3.33;;;;;;;35.42;38.40;100643.84;5587846;31;34098;-72
2023/06/22 08:42:41;;;;;;;11.32;3.72;;;;;;;35.14;39.69;100645.31;5587540;31;35135;-71
2023/06/22 08:45:46;;;;;;;13.10;3.72;;;;;;;36.85;38.27;100646.66;5580776;31;33751;-72
2023/06/22 08:48:50;;;;;;;12.57;4.07;;;;;;;37.54;36.57;100642.50;5580868;31;33988;-72
2023/06/22 08:51:56;;;;;;;8.82;3.78;;;;;;;36.04;37.72;100641.41;5564664;32;34162;-72
2023/06/22 08:55:01;;;;;;;9.73;3.87;;;;;;;36.89;38.64;100633.00;5567687;32;34008;-72
2023/06/22 08:58:06;;;;;;;14.18;4.53;;;;;;;36.21;38.43;100629.53;5567801;32;34109;-72
2023/06/22 09:01:10;;;;;;;11.43;4.28;;;;;;;36.90;39.50;100621.56;5567460;32;34112;-72
2023/06/22 09:04:14;;;;;;;8.45;3.87;;;;;;;35.59;38.79;100613.44;5568308;32;34526;-72
2023/06/22 09:07:22;;;;;;;10.40;4.18;;;;;;;36.72;38.10;100617.34;5567426;32;32378;-71
2023/06/22 09:10:26;;;;;;;10.05;4.10;;;;;;;35.93;39.90;100615.31;5554414;32;34236;-71
2023/06/22 09:13:31;;;;;;;11.88;4.40;;;;;;;37.40;37.66;100617.88;5567744;32;33958;-72
2023/06/22 09:16:35;;;;;;;12.23;4.45;;;;;;;37.17;36.18;100627.72;5567508;32;33977;-72
2023/06/22 09:19:41;;;;;;;10.88;4.10;;;;;;;37.53;35.75;100611.25;5567868;32;34052;-72
2023/06/22 09:22:45;;;;;;;12.73;5.35;;;;;;;37.72;38.00;100613.47;5567758;32;34171;-71
2023/06/22 09:25:50;;;;;;;12.23;4.82;;;;;;;38.37;36.82;100606.13;5567128;32;33965;-71
2023/06/22 09:28:54;;;;;;;7.35;4.97;;;;;;;38.71;35.94;100597.31;5567906;32;34208;-71
2023/06/22 09:32:00;;;;;;;13.95;4.87;;;;;;;37.16;38.84;100593.72;5567597;32;33904;-71
2023/06/22 09:35:06;;;;;;;10.63;5.00;;;;;;;37.26;38.28;100600.78;5569091;32;34053;-71
2023/06/22 09:38:10;;;;;;;10.82;4.60;;;;;;;36.78;38.45;100599.41;5568016;32;33997;-71
2023/06/22 09:41:14;;;;;;;12.10;5.10;;;;;;;36.05;39.43;100595.28;5570617;32;34045;-70
2023/06/22 09:44:17;;;;;;;12.95;5.20;;;;;;;37.64;37.03;100593.06;5572787;31;34578;-71
2023/06/22 09:47:20;;;;;;;10.13;5.10;;;;;;;38.00;35.24;100595.09;5575312;31;34255;-71
2023/06/22 09:50:23;;;;;;;10.25;5.25;;;;;;;38.23;34.11;100599.00;5576300;31;34787;-70
2023/06/22 09:53:28;;;;;;;12.88;4.90;;;;;;;38.45;34.43;100591.34;5576859;31;34839;-70
2023/06/22 09:56:33;;;;;;;13.93;5.43;;;;;;;39.17;34.75;100587.53;5567705;32;34614;-72
2023/06/22 09:59:39;;;;;;;19.45;6.05;;;;;;;39.07;35.94;100591.62;5567534;32;34028;-71
2023/06/22 10:02:44;;;;;;;13.77;5.47;;;;;;;37.91;35.17;100588.78;5567861;32;34318;-70
2023/06/22 10:05:48;;;;;;;9.27;5.25;;;;;;;38.72;35.59;100592.56;5567436;32;34233;-72
2023/06/22 10:08:53;;;;;;;13.35;5.55;;;;;;;38.53;34.84;100585.69;5576311;31;33984;-71
2023/06/22 10:11:57;;;;;;;10.65;5.60;;;;;;;39.83;33.80;100582.19;5587113;31;33809;-69
2023/06/22 10:15:01;;;;;;;15.13;5.47;;;;;;;39.82;32.85;100585.31;5586838;31;34306;-69
2023/06/22 10:18:06;;;;;;;10.48;5.60;;;;;;;39.74;34.46;100591.84;5587094;31;34872;-71
2023/06/22 10:21:10;;;;;;;9.02;5.40;;;;;;;40.28;31.90;100589.25;5587000;31;34301;-70
2023/06/22 10:24:15;;;;;;;11.52;5.60;;;;;;;40.85;31.16;100587.72;5586099;31;34942;-73
2023/06/22 10:27:20;;;;;;;15.05;5.53;;;;;;;41.25;32.52;100584.56;5584344;31;34185;-70
2023/06/22 10:30:25;;;;;;;8.73;5.18;;;;;;;40.87;30.43;100582.56;5575521;31;33990;-70
2023/06/22 10:33:28;;;;;;;9.05;5.40;;;;;;;40.67;31.77;100573.41;5577039;31;33820;-71
2023/06/22 10:36:32;;;;;;;12.02;5.30;;;;;;;41.44;31.35;100576.16;5576300;31;34714;-72
2023/06/22 10:39:36;;;;;;;17.65;5.62;;;;;;;42.13;30.69;100574.12;5567987;31;34088;-72
2023/06/22 10:42:42;;;;;;;11.98;5.45;;;;;;;42.69;30.08;100572.19;5567041;32;34733;-71
2023/06/22 10:45:46;;;;;;;12.50;5.32;;;;;;;41.33;30.64;100569.56;5568083;31;34057;-71
2023/06/22 10:48:50;;;;;;;11.45;5.68;;;;;;;41.09;31.31;100565.16;5572182;31;34386;-71
2023/06/22 10:51:53;;;;;;;16.90;5.03;;;;;;;40.65;30.81;100562.69;5577181;31;34857;-71
2023/06/22 10:54:57;;;;;;;13.85;5.45;;;;;;;40.20;31.63;100556.88;5575595;31;34173;-71
2023/06/22 10:58:00;;;;;;;49.05;14.50;;;;;;;41.75;29.54;100552.81;5574493;31;34802;-71
2023/06/22 11:01:04;;;;;;;18.58;6.62;;;;;;;40.18;32.59;100553.62;5578424;31;34089;-71
2023/06/22 11:04:07;;;;;;;16.67;5.60;;;;;;;41.63;30.60;100553.81;5586132;31;33940;-71
2023/06/22 11:07:10;;;;;;;12.85;5.72;;;;;;;42.72;29.31;100559.44;5576723;31;34050;-71
2023/06/22 11:10:13;;;;;;;19.35;5.90;;;;;;;43.13;28.45;100555.56;5576227;31;34018;-70
2023/06/22 11:13:18;;;;;;;14.52;5.47;;;;;;;42.97;29.03;100559.72;5573717;31;33949;-71
2023/06/22 11:16:21;;;;;;;11.77;5.05;;;;;;;43.19;28.86;100547.62;5569207;31;34050;-71
2023/06/22 11:19:24;;;;;;;9.77;5.47;;;;;;;44.60;26.47;100550.66;5566907;32;34004;-71
2023/06/22 11:22:29;;;;;;;13.70;6.15;;;;;;;44.74;27.20;100547.16;5567037;32;34229;-71
2023/06/22 11:25:38;;;;;;;22.62;6.90;;;;;;;42.65;30.82;100539.81;5574927;31;34215;-71
2023/06/22 11:28:41;;;;;;;11.38;5.53;;;;;;;41.40;30.97;100541.84;5586474;31;34153;-72
2023/06/22 11:31:45;;;;;;;18.30;5.62;;;;;;;42.23;29.36;100532.44;5586288;31;33930;-71
2023/06/22 11:34:51;;;;;;;10.88;6.30;;;;;;;42.05;30.17;100534.19;5586145;31;34687;-71
2023/06/22 11:37:56;;;;;;;14.95;6.28;;;;;;;39.55;33.19;100531.47;5586206;31;34714;-71
2023/06/22 11:41:00;;;;;;;13.15;5.87;;;;;;;38.31;35.10;100527.94;5584537;31;34270;-71
2023/06/22 11:44:04;;;;;;;11.20;5.82;;;;;;;37.64;36.30;100523.03;5572600;31;34071;-71
2023/06/22 11:47:08;;;;;;;12.65;6.32;;;;;;;37.34;35.47;100517.66;5576542;31;33838;-71
2023/06/22 11:50:13;;;;;;;15.90;5.82;;;;;;;39.30;34.03;100516.94;5583798;31;33832;-71
2023/06/22 11:53:19;;;;;;;13.20;6.12;;;;;;;41.09;31.09;100515.88;5585930;31;34079;-70
2023/06/22 11:56:22;;;;;;;12.23;5.35;;;;;;;44.51;27.34;100519.47;5585637;31;34110;-70
2023/06/22 11:59:26;;;;;;;10.82;5.78;;;;;;;44.67;26.19;100510.75;5585818;31;34324;-71
2023/06/22 12:02:31;;;;;;;10.25;5.53;;;;;;;44.06;26.85;100512.41;5585504;31;34266;-70
2023/06/22 12:05:34;;;;;;;14.18;6.15;;;;;;;43.56;27.09;100511.28;5580729;31;33988;-71
2023/06/22 12:08:39;;;;;;;9.65;5.28;;;;;;;40.20;31.16;100510.44;5585772;31;33873;-71
2023/06/22 12:11:43;;;;;;;11.75;5.57;;;;;;;42.70;27.20;100514.38;5578864;31;34690;-71
2023/06/22 12:14:46;;;;;;;11.35;5.50;;;;;;;45.47;24.72;100512.09;5574632;31;34000;-71
2023/06/22 12:17:50;;;;;;;13.82;5.28;;;;;;;47.46;23.67;100507.28;5576087;31;34816;-72
2023/06/22 12:20:53;;;;;;;12.93;5.35;;;;;;;41.57;28.21;100496.81;5576562;31;34613;-71
2023/06/22 12:23:58;;;;;;;15.38;5.65;;;;;;;42.73;28.48;100483.72;5577577;31;34148;-70
2023/06/22 12:27:03;;;;;;;13.23;5.78;;;;;;;44.16;27.41;100484.50;5575963;31;34233;-71
2023/06/22 12:30:08;;;;;;;13.10;5.87;;;;;;;43.03;27.53;100475.25;5575300;31;34020;-70
2023/06/22 12:33:12;;;;;;;12.98;5.47;;;;;;;44.20;27.49;100476.16;5575182;31;34149;-71
2023/06/22 12:36:16;;;;;;;13.75;5.53;;;;;;;45.68;24.92;100483.25;5574231;31;34441;-70
2023/06/22 12:39:19;;;;;;;8.23;5.28;;;;;;;46.25;25.14;100481.94;5573707;31;34137;-71
2023/06/22 12:42:23;;;;;;;12.80;5.40;;;;;;;44.34;24.70;100473.44;5570622;31;34613;-71
2023/06/22 12:45:28;;;;;;;9.82;5.55;;;;;;;47.25;22.04;100470.94;5579916;31;33728;-69
2023/06/22 12:48:32;;;;;;;9.77;5.68;;;;;;;45.16;24.74;100468.88;5585231;31;33867;-69
2023/06/22 12:51:42;;;;;;;14.70;5.30;;;;;;;43.28;27.32;100461.53;5584824;31;34112;-70
2023/06/22 12:54:48;;;;;;;10.18;5.78;;;;;;;44.88;26.53;100463.22;5585085;31;34602;-70
2023/06/22 12:57:57;;;;;;;9.60;5.68;;;;;;;44.75;25.39;100457.19;5584970;31;35285;-69
2023/06/22 13:01:01;;;;;;;12.80;5.80;;;;;;;43.09;27.98;100462.56;5587673;31;35054;-70
2023/06/22 13:04:05;;;;;;;14.38;5.12;;;;;;;45.58;25.40;100468.06;5586718;31;35020;-70
2023/06/22 13:07:11;;;;;;;15.70;5.90;;;;;;;43.33;27.08;100456.38;5587289;31;34048;-70
2023/06/22 13:10:19;;;;;;;11.77;5.40;;;;;;;46.01;24.85;100462.38;5587682;31;33988;-70
2023/06/22 13:13:29;;;;;;;11.57;5.57;;;;;;;44.54;25.81;100449.50;5587319;31;33987;-70
2023/06/22 13:16:34;;;;;;;10.02;4.93;;;;;;;44.74;25.88;100444.37;5587457;31;34288;-70
2023/06/22 13:19:42;;;;;;;16.02;4.95;;;;;;;45.34;25.00;100440.84;5587532;31;34035;-69
2023/06/22 13:22:48;;;;;;;11.20;5.35;;;;;;;45.71;23.70;100434.78;5587217;31;34813;-70
2023/06/22 13:25:54;;;;;;;24.77;5.07;;;;;;;45.43;24.19;100432.84;5587319;31;34127;-69
2023/06/22 13:28:59;;;;;;;16.42;5.32;;;;;;;46.24;25.06;100431.84;5586358;31;33936;-68
2023/06/22 13:32:05;;;;;;;12.25;5.28;;;;;;;45.49;25.29;100427.63;5586847;31;35174;-70
2023/06/22 13:35:11;;;;;;;22.15;5.10;;;;;;;43.58;26.21;100422.25;5577943;31;35533;-69
2023/06/22 13:38:17;;;;;;;12.73;6.28;;;;;;;45.43;25.51;100427.25;5587015;31;34211;-69
2023/06/22 13:41:21;;;;;;;11.73;4.93;;;;;;;45.31;25.88;100431.25;5586546;31;34164;-69
2023/06/22 13:44:28;;;;;;;10.30;5.03;;;;;;;46.55;23.65;100425.28;5587128;31;34060;-69
2023/06/22 13:47:34;;;;;;;11.00;5.30;;;;;;;45.90;24.11;100417.53;5586947;31;35162;-69
2023/06/22 13:50:39;;;;;;;13.82;5.60;;;;;;;44.66;25.67;100422.38;5586035;31;34344;-69
2023/06/22 13:53:46;;;;;;;11.57;4.90;;;;;;;42.59;29.57;100408.22;5586805;31;33823;-70
2023/06/22 13:56:52;;;;;;;13.73;5.20;;;;;;;44.59;25.42;100412.75;5584257;31;35180;-71
2023/06/22 13:59:56;;;;;;;12.07;5.82;;;;;;;45.44;24.85;100406.44;5586491;31;35237;-70
2023/06/22 14:03:01;;;;;;;9.45;5.30;;;;;;;44.59;25.54;100404.34;5579704;31;34816;-70
2023/06/22 14:06:06;;;;;;;16.58;5.95;;;;;;;43.86;26.62;100399.28;5577801;31;33844;-70
2023/06/22 14:09:10;;;;;;;13.45;5.65;;;;;;;43.36;27.26;100395.34;5571216;31;32448;-70
2023/06/22 14:12:19;;;;;;;14.40;5.17;;;;;;;45.43;25.33;100402.81;5570442;31;34171;-69